Time;durP1;ratioP1;P1;durP2;ratioP2;P2;SDS_P1;SDS_P2;PMS_P1;PMS_P2;Temp;Humidity;BMP_temperature;BMP_pressure;BME280_temperature;BME280_humidity;BME280_pressure;Samples;Min_cycle;Max_cycle;Signal;HPM_P1;HPM_P2
2021/09/06 00:00:28;;;;;;;10.70;8.18;;;12.80;98.40;;;;;;5078275;28;20708;-83
2021/09/06 00:02:54;;;;;;;9.43;8.23;;;12.80;98.60;;;;;;5078617;28;20221;-84
2021/09/06 00:05:23;;;;;;;11.32;8.23;;;12.80;98.60;;;;;;5087559;28;20248;-84
2021/09/06 00:07:50;;;;;;;10.57;8.68;;;12.70;98.70;;;;;;5085694;28;20201;-84
2021/09/06 00:10:36;;;;;;;9.93;8.60;;;12.70;98.80;;;;;;5082463;28;20244;-83
2021/09/06 00:13:06;;;;;;;9.35;8.02;;;12.80;98.80;;;;;;5073143;28;20285;-86
2021/09/06 00:15:33;;;;;;;11.10;8.07;;;12.80;99.00;;;;;;5076681;28;20308;-83
2021/09/06 00:18:00;;;;;;;10.80;8.23;;;12.90;98.50;;;;;;5080884;28;20206;-84
2021/09/06 00:20:29;;;;;;;10.07;8.07;;;12.90;98.40;;;;;;5081539;28;20252;-84
2021/09/06 00:22:56;;;;;;;9.02;8.13;;;12.80;98.40;;;;;;5083510;28;20229;-85
2021/09/06 00:25:23;;;;;;;9.35;8.20;;;12.70;98.50;;;;;;5081099;28;20256;-83
2021/09/06 00:27:50;;;;;;;8.90;8.00;;;12.80;98.60;;;;;;5079444;28;20630;-85
2021/09/06 00:30:17;;;;;;;8.98;8.07;;;12.70;98.50;;;;;;5080354;28;20217;-87
2021/09/06 00:32:44;;;;;;;8.80;7.55;;;12.60;98.60;;;;;;5078964;28;20455;-85
2021/09/06 00:35:11;;;;;;;9.07;8.00;;;12.50;98.70;;;;;;5077452;28;20260;-83
2021/09/06 00:37:40;;;;;;;9.57;8.23;;;12.50;98.90;;;;;;5077047;28;20216;-83
2021/09/06 00:40:08;;;;;;;9.00;8.07;;;12.60;99.00;;;;;;5079109;28;20322;-83
2021/09/06 00:42:35;;;;;;;8.60;7.68;;;12.60;98.70;;;;;;5074302;28;20261;-85
2021/09/06 00:45:02;;;;;;;8.70;7.75;;;12.60;98.50;;;;;;5076742;28;20311;-83
2021/09/06 00:47:29;;;;;;;10.43;8.00;;;12.60;98.50;;;;;;5077171;28;20197;-84
2021/09/06 00:49:55;;;;;;;9.02;7.90;;;12.50;98.30;;;;;;5086693;28;20270;-83
2021/09/06 00:52:22;;;;;;;8.95;8.02;;;12.50;98.60;;;;;;5087371;28;20247;-83
2021/09/06 00:54:51;;;;;;;10.10;7.82;;;12.50;98.60;;;;;;5084955;28;20243;-83
2021/09/06 00:57:18;;;;;;;9.57;7.88;;;12.50;98.70;;;;;;5085566;28;20644;-83
2021/09/06 00:59:45;;;;;;;8.75;7.55;;;12.50;98.50;;;;;;5078579;28;20225;-83
2021/09/06 01:02:12;;;;;;;8.82;7.85;;;12.50;98.40;;;;;;5086611;28;20207;-84
2021/09/06 01:04:39;;;;;;;9.20;8.30;;;12.50;98.40;;;;;;5078597;28;20228;-83
2021/09/06 01:07:06;;;;;;;8.55;7.53;;;12.40;98.40;;;;;;5081871;28;20251;-84
2021/09/06 01:09:33;;;;;;;9.38;7.90;;;12.40;98.60;;;;;;5085285;28;20236;-83
2021/09/06 01:12:01;;;;;;;10.82;7.38;;;12.30;98.60;;;;;;5084844;28;20228;-84
2021/09/06 01:14:28;;;;;;;8.88;7.85;;;12.30;98.40;;;;;;5076233;28;20197;-85
2021/09/06 01:16:55;;;;;;;10.10;7.88;;;12.30;98.30;;;;;;5083316;28;20296;-83
2021/09/06 01:19:22;;;;;;;8.93;7.25;;;12.20;98.30;;;;;;5083596;28;20204;-84
2021/09/06 01:21:49;;;;;;;11.35;8.00;;;12.30;98.20;;;;;;5090554;28;20292;-83
2021/09/06 01:24:17;;;;;;;9.70;7.57;;;12.20;98.20;;;;;;5084527;28;20209;-83
2021/09/06 01:26:46;;;;;;;9.07;7.82;;;12.20;98.30;;;;;;5077167;28;20315;-87
2021/09/06 01:29:13;;;;;;;9.68;7.65;;;12.10;98.30;;;;;;5084852;28;20261;-84
2021/09/06 01:31:40;;;;;;;8.50;7.60;;;12.20;98.30;;;;;;5079534;28;20229;-83
2021/09/06 01:34:10;;;;;;;9.15;7.10;;;12.20;98.20;;;;;;5085931;28;20262;-83
2021/09/06 01:36:38;;;;;;;8.82;7.80;;;12.20;98.30;;;;;;5081046;28;20225;-84
2021/09/06 01:39:06;;;;;;;9.93;7.65;;;12.10;98.30;;;;;;5079990;28;20280;-83
2021/09/06 01:41:33;;;;;;;12.20;7.32;;;12.00;98.40;;;;;;5076043;28;20871;-83
2021/09/06 01:44:01;;;;;;;8.48;7.57;;;12.00;98.20;;;;;;5079184;28;20205;-83
2021/09/06 01:46:29;;;;;;;7.63;6.82;;;12.00;98.10;;;;;;5084733;28;20703;-85
2021/09/06 01:48:57;;;;;;;8.27;7.32;;;11.90;98.50;;;;;;5082878;28;20205;-83
2021/09/06 01:51:24;;;;;;;9.60;7.53;;;11.90;98.50;;;;;;5083617;28;20229;-83
2021/09/06 01:53:51;;;;;;;7.88;6.72;;;11.80;98.50;;;;;;5080594;28;20215;-83
2021/09/06 01:56:21;;;;;;;8.45;7.28;;;11.80;98.60;;;;;;5079907;28;20879;-83
2021/09/06 01:58:48;;;;;;;9.07;7.07;;;11.80;98.50;;;;;;5079922;28;20696;-84
2021/09/06 02:01:17;;;;;;;8.85;7.47;;;11.80;98.50;;;;;;5080589;28;20232;-83
2021/09/06 02:03:44;;;;;;;8.25;7.07;;;11.70;98.30;;;;;;5081580;28;20300;-83
2021/09/06 02:06:11;;;;;;;8.63;6.97;;;11.70;98.60;;;;;;5076644;28;20289;-84
2021/09/06 02:08:38;;;;;;;8.45;7.35;;;11.60;98.60;;;;;;5080746;28;20203;-83
2021/09/06 02:11:05;;;;;;;7.50;6.72;;;11.60;98.70;;;;;;5081327;28;20293;-85
2021/09/06 02:13:32;;;;;;;8.55;6.65;;;11.60;98.50;;;;;;5081226;28;20189;-83
2021/09/06 02:15:59;;;;;;;8.90;6.68;;;11.60;98.40;;;;;;5072147;28;20308;-84
2021/09/06 02:18:28;;;;;;;9.02;6.70;;;11.70;98.30;;;;;;5080262;28;20727;-83
2021/09/06 02:20:55;;;;;;;7.53;6.35;;;11.70;98.30;;;;;;5086667;28;20285;-84
2021/09/06 02:23:22;;;;;;;8.70;6.78;;;11.70;98.10;;;;;;5079172;28;20265;-83
2021/09/06 02:25:48;;;;;;;8.43;6.53;;;11.50;98.00;;;;;;5085382;28;20304;-84
2021/09/06 02:28:15;;;;;;;8.93;6.95;;;11.40;98.10;;;;;;5079547;28;20201;-84
2021/09/06 02:30:42;;;;;;;9.10;6.90;;;11.40;98.40;;;;;;5074672;28;20222;-83
2021/09/06 02:33:09;;;;;;;10.25;6.70;;;11.40;98.40;;;;;;5072738;28;20244;-83
2021/09/06 02:35:37;;;;;;;7.38;6.43;;;11.30;98.20;;;;;;5080967;28;20257;-83
2021/09/06 02:38:04;;;;;;;7.00;6.18;;;11.20;98.50;;;;;;5081456;28;20288;-83
2021/09/06 02:40:31;;;;;;;8.00;6.60;;;11.20;98.60;;;;;;5077727;28;20237;-85
2021/09/06 02:42:58;;;;;;;8.82;6.68;;;11.30;98.50;;;;;;5074489;28;20282;-85
2021/09/06 02:45:25;;;;;;;7.05;6.05;;;11.30;98.40;;;;;;5081051;28;20235;-83
2021/09/06 02:47:52;;;;;;;7.85;6.55;;;11.20;98.30;;;;;;5081834;28;20225;-84
2021/09/06 02:50:19;;;;;;;7.35;6.13;;;11.20;98.40;;;;;;5082587;28;20271;-83
2021/09/06 02:52:47;;;;;;;8.40;6.82;;;11.20;98.60;;;;;;5077090;28;20235;-83
2021/09/06 02:55:14;;;;;;;8.68;6.80;;;11.10;98.30;;;;;;5080179;28;20256;-83
2021/09/06 02:57:41;;;;;;;7.70;6.90;;;11.00;98.30;;;;;;5077023;28;20197;-84
2021/09/06 03:00:09;;;;;;;11.50;6.57;;;11.00;98.40;;;;;;5076630;28;20288;-83
2021/09/06 03:02:36;;;;;;;7.80;6.45;;;11.00;98.70;;;;;;5075985;28;20255;-83
2021/09/06 03:05:03;;;;;;;8.35;6.53;;;11.10;98.50;;;;;;5071899;28;20581;-83
2021/09/06 03:07:30;;;;;;;7.38;6.47;;;11.20;98.30;;;;;;5081711;28;20299;-83
2021/09/06 03:10:00;;;;;;;7.80;7.00;;;11.20;98.10;;;;;;5078440;28;20293;-83
2021/09/06 03:12:27;;;;;;;7.88;6.40;;;11.20;98.00;;;;;;5081056;28;20193;-86
2021/09/06 03:14:54;;;;;;;8.07;6.72;;;11.20;98.20;;;;;;5078832;28;20288;-84
2021/09/06 03:17:21;;;;;;;8.25;6.25;;;11.20;98.00;;;;;;5076952;28;20268;-83
2021/09/06 03:19:48;;;;;;;12.80;6.80;;;11.20;97.80;;;;;;5076240;28;20249;-84
2021/09/06 03:22:16;;;;;;;7.60;6.50;;;11.10;97.90;;;;;;5081220;28;20305;-83
2021/09/06 03:24:43;;;;;;;9.30;6.68;;;11.10;98.00;;;;;;5076115;28;20603;-83
2021/09/06 03:27:11;;;;;;;7.47;6.50;;;11.10;97.80;;;;;;5083291;28;20220;-84
2021/09/06 03:29:38;;;;;;;7.05;6.15;;;11.00;98.00;;;;;;5078348;28;20279;-83
2021/09/06 03:32:06;;;;;;;8.52;6.35;;;11.00;98.20;;;;;;5076723;28;20224;-83
2021/09/06 03:34:33;;;;;;;6.82;6.13;;;11.00;98.10;;;;;;5086811;28;20280;-83
2021/09/06 03:36:59;;;;;;;8.48;6.65;;;11.00;98.00;;;;;;5080432;28;20280;-84
2021/09/06 03:39:26;;;;;;;7.88;6.78;;;11.00;97.90;;;;;;5078463;28;20228;-83
2021/09/06 03:41:53;;;;;;;7.78;6.97;;;11.00;97.90;;;;;;5076014;28;20229;-86
2021/09/06 03:44:24;;;;;;;7.78;6.70;;;10.90;97.90;;;;;;5074894;28;20284;-84
2021/09/06 03:46:51;;;;;;;7.45;6.38;;;10.80;98.10;;;;;;5078206;28;20595;-84
2021/09/06 03:49:18;;;;;;;6.82;6.00;;;10.80;98.30;;;;;;5080647;28;20637;-83
2021/09/06 03:51:45;;;;;;;6.82;6.15;;;10.90;98.10;;;;;;5081107;28;20252;-84
2021/09/06 03:54:12;;;;;;;7.45;6.57;;;10.90;97.80;;;;;;5075141;28;20221;-83
2021/09/06 03:56:39;;;;;;;7.35;6.55;;;11.00;97.80;;;;;;5080471;28;20264;-83
2021/09/06 03:59:06;;;;;;;7.28;6.22;;;10.90;97.80;;;;;;5086848;28;20276;-84
2021/09/06 04:01:34;;;;;;;7.05;6.35;;;10.90;97.90;;;;;;5073982;28;20218;-83
2021/09/06 04:04:01;;;;;;;7.88;6.35;;;10.90;97.90;;;;;;5080049;28;20691;-83
2021/09/06 04:06:28;;;;;;;7.15;6.30;;;10.90;97.80;;;;;;5084514;28;20228;-83
2021/09/06 04:08:55;;;;;;;8.07;6.38;;;10.90;97.80;;;;;;5083258;28;20293;-83
2021/09/06 04:11:22;;;;;;;9.88;6.45;;;10.80;97.90;;;;;;5078358;28;20232;-82
2021/09/06 04:13:49;;;;;;;8.60;6.25;;;10.90;97.80;;;;;;5077552;28;20259;-83
2021/09/06 04:16:16;;;;;;;8.77;6.68;;;10.80;97.80;;;;;;5082461;28;20320;-83
2021/09/06 04:18:44;;;;;;;10.82;6.75;;;10.80;97.70;;;;;;5084207;28;20216;-83
2021/09/06 04:21:11;;;;;;;7.60;6.63;;;10.70;97.50;;;;;;5077439;28;20225;-83
2021/09/06 04:23:39;;;;;;;7.78;6.88;;;10.70;97.60;;;;;;5079686;28;20228;-83
2021/09/06 04:26:06;;;;;;;9.50;6.43;;;10.60;97.60;;;;;;5083969;28;20228;-84
2021/09/06 04:28:33;;;;;;;7.43;6.63;;;10.60;97.90;;;;;;5083596;28;20227;-85
2021/09/06 04:30:59;;;;;;;8.02;5.97;;;10.60;97.70;;;;;;5075175;28;20242;-83
2021/09/06 04:33:26;;;;;;;7.22;6.53;;;10.60;97.60;;;;;;5081246;28;20240;-83
2021/09/06 04:35:55;;;;;;;7.00;6.30;;;10.50;97.60;;;;;;5079557;28;20225;-83
2021/09/06 04:38:22;;;;;;;7.05;6.00;;;10.50;97.70;;;;;;5079767;28;20197;-83
2021/09/06 04:40:49;;;;;;;6.93;6.22;;;10.50;97.80;;;;;;5076835;28;20296;-83
2021/09/06 04:43:16;;;;;;;7.38;6.18;;;10.50;97.70;;;;;;5077494;28;20589;-83
2021/09/06 04:45:43;;;;;;;7.63;6.68;;;10.40;97.80;;;;;;5079423;28;20260;-83
2021/09/06 04:48:10;;;;;;;6.93;6.20;;;10.40;98.00;;;;;;5072390;28;20220;-83
2021/09/06 04:50:55;;;;;;;7.25;6.55;;;10.30;98.00;;;;;;5084101;28;20563;-83
2021/09/06 04:53:23;;;;;;;8.07;6.15;;;10.30;98.10;;;;;;5080200;28;20260;-83
2021/09/06 04:55:50;;;;;;;7.55;6.60;;;10.30;98.20;;;;;;5074269;28;20248;-84
2021/09/06 04:58:17;;;;;;;6.78;6.07;;;10.20;98.10;;;;;;5079622;28;20235;-84
2021/09/06 05:00:45;;;;;;;7.18;6.43;;;10.30;98.30;;;;;;5077502;28;20229;-84
2021/09/06 05:03:11;;;;;;;7.63;6.55;;;10.30;98.30;;;;;;5080206;28;20205;-83
2021/09/06 05:05:38;;;;;;;9.45;6.65;;;10.30;98.40;;;;;;5080532;28;20311;-83
2021/09/06 05:08:07;;;;;;;8.13;7.00;;;10.50;98.10;;;;;;5080048;28;20582;-83
2021/09/06 05:10:34;;;;;;;9.50;6.30;;;10.60;98.00;;;;;;5079236;28;20752;-83
2021/09/06 05:13:00;;;;;;;9.25;6.85;;;10.60;98.00;;;;;;5074104;28;20225;-83
2021/09/06 05:15:27;;;;;;;8.88;6.45;;;10.60;98.00;;;;;;5077732;28;20229;-83
2021/09/06 05:17:55;;;;;;;8.00;6.63;;;10.70;97.80;;;;;;5077587;28;20229;-84
2021/09/06 05:20:22;;;;;;;8.75;7.03;;;10.60;97.80;;;;;;5079673;28;20221;-83
2021/09/06 05:22:49;;;;;;;7.35;6.40;;;10.70;97.70;;;;;;5080083;28;20786;-83
2021/09/06 05:25:17;;;;;;;9.93;6.70;;;10.70;98.00;;;;;;5078864;28;20237;-83
2021/09/06 05:27:44;;;;;;;9.10;6.32;;;10.80;97.70;;;;;;5073765;28;20232;-86
2021/09/06 05:30:12;;;;;;;7.50;6.38;;;10.80;97.70;;;;;;5079052;28;20221;-83
2021/09/06 05:32:39;;;;;;;9.18;6.60;;;10.90;97.70;;;;;;5074721;28;20257;-83
2021/09/06 05:35:07;;;;;;;7.88;6.28;;;10.80;97.50;;;;;;5073439;28;20315;-84
2021/09/06 05:37:34;;;;;;;8.40;6.25;;;10.90;97.60;;;;;;5083756;28;20265;-83
2021/09/06 05:40:02;;;;;;;8.38;6.93;;;10.90;97.70;;;;;;5082062;28;20305;-83
2021/09/06 05:42:31;;;;;;;7.45;6.60;;;10.90;97.80;;;;;;5083277;28;20201;-83
2021/09/06 05:44:58;;;;;;;8.77;6.38;;;10.90;98.00;;;;;;5080944;28;20308;-84
2021/09/06 05:47:24;;;;;;;11.30;7.15;;;11.00;98.10;;;;;;5080765;28;20232;-83
2021/09/06 05:49:51;;;;;;;9.60;6.90;;;11.00;98.10;;;;;;5082800;28;20280;-83
2021/09/06 05:52:19;;;;;;;10.07;7.20;;;11.00;98.10;;;;;;5076786;28;20813;-83
2021/09/06 05:54:45;;;;;;;8.35;7.30;;;11.10;98.20;;;;;;5078153;28;20256;-84
2021/09/06 05:57:12;;;;;;;8.45;6.80;;;11.20;98.00;;;;;;5073055;28;20198;-84
2021/09/06 05:59:40;;;;;;;9.88;7.22;;;11.20;97.90;;;;;;5078538;28;20236;-83
2021/09/06 06:02:08;;;;;;;12.52;8.13;;;11.30;97.90;;;;;;5084497;28;20225;-85
2021/09/06 06:04:35;;;;;;;11.35;7.60;;;11.40;98.00;;;;;;5077992;28;20212;-84
2021/09/06 06:07:07;;;;;;;9.98;7.47;;;11.50;98.10;;;;;;5084016;28;20220;-84
2021/09/06 06:09:34;;;;;;;10.57;7.43;;;11.50;98.10;;;;;;5079324;28;20201;-85
2021/09/06 06:12:01;;;;;;;9.10;8.10;;;11.60;98.20;;;;;;5075102;28;20267;-83
2021/09/06 06:14:28;;;;;;;9.48;7.82;;;11.70;98.20;;;;;;5075074;28;20597;-83
2021/09/06 06:16:56;;;;;;;9.75;8.00;;;11.80;98.10;;;;;;5083165;28;20268;-85
2021/09/06 06:19:23;;;;;;;10.13;7.68;;;11.90;98.00;;;;;;5078413;28;20197;-83
2021/09/06 06:21:50;;;;;;;10.30;7.55;;;12.00;98.00;;;;;;5074941;28;20205;-84
2021/09/06 06:24:17;;;;;;;9.20;7.22;;;12.20;98.10;;;;;;5079242;28;20641;-84
2021/09/06 06:26:44;;;;;;;12.02;8.05;;;12.30;98.00;;;;;;5078074;28;20656;-83
2021/09/06 06:29:11;;;;;;;11.02;7.95;;;12.40;98.00;;;;;;5080354;28;20200;-85
2021/09/06 06:31:50;;;;;;;9.20;8.15;;;12.50;97.90;;;;;;5080135;28;20304;-84
2021/09/06 06:34:27;;;;;;;10.52;8.00;;;12.50;98.00;;;;;;5080253;28;20220;-84
2021/09/06 06:36:58;;;;;;;12.13;8.07;;;12.60;98.00;;;;;;5082436;28;20556;-83
2021/09/06 06:39:25;;;;;;;11.82;7.97;;;12.80;98.00;;;;;;5082332;28;20205;-87
2021/09/06 06:41:54;;;;;;;10.15;8.05;;;12.90;97.70;;;;;;5077231;28;20273;-84
2021/09/06 06:44:22;;;;;;;11.18;8.10;;;13.00;97.40;;;;;;5076515;28;20585;-86
2021/09/06 06:46:48;;;;;;;10.68;8.23;;;13.10;97.30;;;;;;5082139;28;20261;-83
2021/09/06 06:49:15;;;;;;;12.57;7.90;;;13.20;97.30;;;;;;5083176;28;20248;-84
2021/09/06 06:51:51;;;;;;;10.23;8.43;;;13.30;97.50;;;;;;5083264;28;20257;-84
2021/09/06 06:54:17;;;;;;;10.73;8.50;;;13.40;97.30;;;;;;5079399;28;20276;-88
2021/09/06 06:56:44;;;;;;;10.73;8.45;;;13.50;97.30;;;;;;5072160;28;20225;-85
2021/09/06 06:59:11;;;;;;;11.52;8.48;;;13.50;97.20;;;;;;5072962;28;20228;-82
2021/09/06 07:01:38;;;;;;;10.35;8.23;;;13.60;97.10;;;;;;5072962;28;20313;-84
2021/09/06 07:04:05;;;;;;;9.57;8.55;;;13.70;97.00;;;;;;5074558;28;20284;-83
2021/09/06 07:06:32;;;;;;;10.75;9.25;;;13.70;96.90;;;;;;5075258;28;20229;-82
2021/09/06 07:09:01;;;;;;;10.38;9.27;;;13.90;96.70;;;;;;5072519;28;20197;-83
2021/09/06 07:11:28;;;;;;;17.92;10.05;;;14.00;96.70;;;;;;5068380;28;20757;-84
2021/09/06 07:13:55;;;;;;;12.50;9.48;;;14.10;96.70;;;;;;5072566;28;20206;-82
2021/09/06 07:16:22;;;;;;;16.38;9.82;;;14.10;96.70;;;;;;5073028;28;20872;-83
2021/09/06 07:18:50;;;;;;;18.15;10.60;;;14.30;96.20;;;;;;5070359;28;20220;-83
2021/09/06 07:21:17;;;;;;;17.35;10.40;;;14.50;95.70;;;;;;5067418;28;20224;-83
2021/09/06 07:23:44;;;;;;;13.68;10.10;;;14.60;95.30;;;;;;5072708;28;20201;-86
2021/09/06 07:26:13;;;;;;;13.40;9.73;;;14.70;95.00;;;;;;5071008;28;20225;-83
2021/09/06 07:28:40;;;;;;;18.50;11.05;;;14.90;94.80;;;;;;5071207;28;20224;-83
2021/09/06 07:31:08;;;;;;;17.95;11.35;;;15.10;94.10;;;;;;5069947;28;20303;-83
2021/09/06 07:33:35;;;;;;;13.98;10.68;;;15.40;92.90;;;;;;5073044;28;20217;-82
2021/09/06 07:36:02;;;;;;;14.93;10.65;;;15.70;91.60;;;;;;5070170;28;20232;-82
2021/09/06 07:38:29;;;;;;;15.65;11.18;;;15.90;91.90;;;;;;5069845;28;20292;-86
2021/09/06 07:40:56;;;;;;;15.15;10.95;;;15.90;91.70;;;;;;5071423;28;20240;-84
2021/09/06 07:43:24;;;;;;;17.98;12.07;;;16.00;91.70;;;;;;5073556;28;20614;-82
2021/09/06 07:45:51;;;;;;;15.18;11.15;;;16.00;90.70;;;;;;5072493;28;20314;-82
2021/09/06 07:48:18;;;;;;;17.15;11.90;;;16.10;90.80;;;;;;5076415;28;20213;-82
2021/09/06 07:50:46;;;;;;;14.77;11.68;;;16.10;91.40;;;;;;5077379;28;20218;-82
2021/09/06 07:53:13;;;;;;;17.52;11.98;;;16.20;90.80;;;;;;5073850;28;20233;-79
2021/09/06 07:55:39;;;;;;;13.35;11.95;;;16.20;91.70;;;;;;5077611;28;20235;-82
2021/09/06 07:58:06;;;;;;;15.90;12.13;;;16.30;91.00;;;;;;5072797;28;20211;-83
2021/09/06 08:00:35;;;;;;;15.00;12.82;;;16.30;91.80;;;;;;5076668;28;20247;-83
2021/09/06 08:03:02;;;;;;;18.30;12.88;;;16.40;91.00;;;;;;5073862;28;20201;-83
2021/09/06 08:05:29;;;;;;;14.75;11.52;;;16.40;91.40;;;;;;5081684;28;20221;-83
2021/09/06 08:07:57;;;;;;;14.27;12.25;;;16.40;91.30;;;;;;5080031;28;20247;-82
2021/09/06 08:10:24;;;;;;;16.20;11.90;;;16.50;90.60;;;;;;5076630;28;20217;-82
2021/09/06 08:12:50;;;;;;;14.30;12.38;;;16.60;90.90;;;;;;5076061;28;20201;-84
2021/09/06 08:15:18;;;;;;;12.90;10.80;;;16.70;90.00;;;;;;5078196;28;20304;-84
2021/09/06 08:17:48;;;;;;;16.17;10.70;;;16.80;91.50;;;;;;5076747;28;20217;-84
2021/09/06 08:20:17;;;;;;;15.88;11.30;;;16.90;90.20;;;;;;5076529;28;20247;-80
2021/09/06 08:22:45;;;;;;;12.93;11.57;;;16.90;90.20;;;;;;5075715;28;20540;-82
2021/09/06 08:25:13;;;;;;;14.90;10.80;;;17.00;90.40;;;;;;5072238;28;20304;-82
2021/09/06 08:27:41;;;;;;;17.55;11.15;;;17.10;90.30;;;;;;5079792;28;20316;-82
2021/09/06 08:30:10;;;;;;;13.35;11.65;;;17.20;89.40;;;;;;5078817;28;20257;-82
2021/09/06 08:32:37;;;;;;;15.25;11.02;;;17.30;88.80;;;;;;5077455;28;20224;-82
2021/09/06 08:35:07;;;;;;;12.88;10.65;;;17.40;88.50;;;;;;5077034;28;20586;-82
2021/09/06 08:37:34;;;;;;;13.00;11.50;;;17.50;87.70;;;;;;5076590;28;20637;-83
2021/09/06 08:40:00;;;;;;;13.48;11.43;;;17.50;86.40;;;;;;5076711;28;20731;-83
2021/09/06 08:42:27;;;;;;;12.63;11.30;;;17.50;86.80;;;;;;5077609;28;20292;-82
2021/09/06 08:44:54;;;;;;;12.55;10.63;;;17.70;87.10;;;;;;5075187;28;20303;-84
2021/09/06 08:47:23;;;;;;;13.75;10.48;;;17.80;85.90;;;;;;5076045;28;20308;-83
2021/09/06 08:49:51;;;;;;;14.05;10.57;;;17.80;85.60;;;;;;5069913;28;20231;-82
2021/09/06 08:52:20;;;;;;;11.40;10.20;;;18.00;82.10;;;;;;5072426;28;20202;-83
2021/09/06 08:54:46;;;;;;;12.80;9.40;;;18.10;80.30;;;;;;5073229;28;20300;-82
2021/09/06 08:57:13;;;;;;;11.77;9.45;;;18.20;79.50;;;;;;5078292;28;20296;-86
2021/09/06 08:59:41;;;;;;;16.58;10.43;;;18.40;81.30;;;;;;5066235;28;20720;-82
2021/09/06 09:02:08;;;;;;;12.90;9.93;;;18.70;75.80;;;;;;5072593;28;20200;-82
2021/09/06 09:04:35;;;;;;;10.88;9.45;;;19.10;75.00;;;;;;5066973;28;20190;-80
2021/09/06 09:07:03;;;;;;;12.40;9.13;;;20.60;68.00;;;;;;5069053;28;20644;-77
2021/09/06 09:09:35;;;;;;;12.65;8.50;;;22.50;51.00;;;;;;5066984;28;20289;-77
2021/09/06 09:12:08;;;;;;;14.55;9.32;;;24.70;40.10;;;;;;5070044;28;20212;-78
2021/09/06 09:14:37;;;;;;;12.05;8.95;;;26.90;31.40;;;;;;5073453;28;20243;-78
2021/09/06 09:17:04;;;;;;;10.07;9.07;;;28.10;26.40;;;;;;5072200;28;20215;-78
2021/09/06 09:19:31;;;;;;;10.50;9.40;;;29.40;23.70;;;;;;5070642;28;20197;-78
2021/09/06 09:21:59;;;;;;;9.98;8.98;;;30.10;21.90;;;;;;5073644;28;20201;-78
2021/09/06 09:24:27;;;;;;;9.00;8.20;;;31.00;20.70;;;;;;5073152;28;20199;-78
2021/09/06 09:26:56;;;;;;;10.85;8.90;;;31.40;18.10;;;;;;5073635;28;20203;-78
2021/09/06 09:29:23;;;;;;;10.65;9.60;;;31.70;17.40;;;;;;5072402;28;20543;-78
2021/09/06 09:31:50;;;;;;;11.45;10.35;;;32.70;17.90;;;;;;5076893;28;20220;-79
2021/09/06 09:34:18;;;;;;;11.75;10.63;;;30.60;18.80;;;;;;5074161;28;20219;-79
2021/09/06 09:36:45;;;;;;;11.48;10.27;;;31.50;17.40;;;;;;5070836;28;20239;-80
2021/09/06 09:39:14;;;;;;;11.90;10.20;;;31.20;18.50;;;;;;5072666;28;20895;-79
2021/09/06 09:41:44;;;;;;;12.43;11.27;;;31.20;18.70;;;;;;5067077;28;20232;-79
2021/09/06 09:44:16;;;;;;;12.73;11.48;;;31.50;17.40;;;;;;5073559;28;20209;-79
2021/09/06 09:46:53;;;;;;;11.35;10.35;;;31.30;17.30;;;;;;5067989;28;20221;-79
2021/09/06 09:49:20;;;;;;;11.95;10.77;;;30.90;17.70;;;;;;5075582;28;20312;-79
2021/09/06 09:51:47;;;;;;;14.68;11.68;;;30.80;19.10;;;;;;5071495;28;20244;-80
2021/09/06 09:54:15;;;;;;;11.77;10.77;;;30.60;18.70;;;;;;5073359;28;20215;-80
2021/09/06 09:56:43;;;;;;;11.07;10.00;;;31.20;18.50;;;;;;5070987;28;20326;-80
2021/09/06 09:59:10;;;;;;;14.90;10.80;;;32.50;17.90;;;;;;5072232;28;20205;-80
2021/09/06 10:01:44;;;;;;;12.07;11.00;;;31.70;17.40;;;;;;5073076;28;20659;-82
2021/09/06 10:04:14;;;;;;;12.45;11.10;;;31.20;17.20;;;;;;5073695;28;20284;-80
2021/09/06 10:06:43;;;;;;;12.38;10.93;;;31.60;17.40;;;;;;5079505;28;20315;-81
2021/09/06 10:09:14;;;;;;;12.75;11.10;;;31.70;17.60;;;;;;5071451;28;20307;-84
2021/09/06 10:11:43;;;;;;;9.95;9.05;;;31.40;17.30;;;;;;5073089;28;20233;-80
2021/09/06 10:14:17;;;;;;;11.05;9.85;;;31.70;17.40;;;;;;5072063;28;20197;-80
2021/09/06 10:16:48;;;;;;;10.93;9.90;;;31.70;17.50;;;;;;5074589;28;20227;-84
2021/09/06 10:19:16;;;;;;;12.00;10.80;;;32.30;17.70;;;;;;5078202;28;20284;-80
2021/09/06 10:21:48;;;;;;;10.57;9.60;;;31.70;17.50;;;;;;5076763;28;20232;-80
2021/09/06 10:24:17;;;;;;;11.25;9.68;;;31.40;17.30;;;;;;5073679;28;20197;-81
2021/09/06 10:26:45;;;;;;;10.73;9.82;;;30.90;18.50;;;;;;5076920;28;20216;-83
2021/09/06 10:29:14;;;;;;;9.88;9.10;;;31.40;18.70;;;;;;5073889;28;20233;-81
2021/09/06 10:31:42;;;;;;;10.00;9.13;;;31.70;17.40;;;;;;5077587;28;20221;-80
2021/09/06 10:34:21;;;;;;;9.98;9.18;;;31.60;17.40;;;;;;5076661;28;20220;-80
2021/09/06 10:37:00;;;;;;;10.40;9.45;;;29.00;20.90;;;;;;5071942;28;21180;-78
2021/09/06 10:39:27;;;;;;;9.48;8.68;;;29.30;21.80;;;;;;5072037;28;20291;-79
2021/09/06 10:41:54;;;;;;;9.93;9.02;;;30.00;19.80;;;;;;5070989;28;20213;-82
2021/09/06 10:44:25;;;;;;;8.88;8.18;;;28.80;21.40;;;;;;5069389;28;20223;-78
2021/09/06 10:46:54;;;;;;;9.80;7.93;;;28.00;24.20;;;;;;5048307;28;20210;-79
2021/09/06 10:49:26;;;;;;;8.20;7.50;;;29.20;20.80;;;;;;5050937;28;20689;-78
2021/09/06 10:51:55;;;;;;;9.32;8.45;;;29.70;21.60;;;;;;5049021;28;20225;-79
2021/09/06 10:54:22;;;;;;;9.68;8.77;;;30.20;19.20;;;;;;5052034;28;20197;-78
2021/09/06 10:56:52;;;;;;;9.43;7.82;;;30.20;19.80;;;;;;5051691;28;20688;-79
2021/09/06 10:59:24;;;;;;;9.48;8.55;;;29.70;23.20;;;;;;5047330;28;20194;-79
2021/09/06 11:01:52;;;;;;;9.98;8.57;;;28.40;22.60;;;;;;5071709;28;20354;-79
2021/09/06 11:04:22;;;;;;;9.00;8.00;;;27.40;24.90;;;;;;5071363;28;20231;-78
2021/09/06 11:07:00;;;;;;;12.48;9.30;;;27.40;26.50;;;;;;5072512;28;20217;-78
2021/09/06 11:09:28;;;;;;;13.40;9.93;;;27.20;30.70;;;;;;5070612;28;20246;-78
2021/09/06 11:12:00;;;;;;;8.95;8.15;;;26.70;29.10;;;;;;5051910;28;20240;-78
2021/09/06 11:14:33;;;;;;;10.02;8.88;;;26.20;30.10;;;;;;5048689;28;20253;-78
2021/09/06 11:17:00;;;;;;;8.50;7.60;;;26.20;30.30;;;;;;5044746;28;20676;-77
2021/09/06 11:19:29;;;;;;;8.70;7.90;;;26.00;30.00;;;;;;5050170;28;20189;-78
2021/09/06 11:21:59;;;;;;;8.10;7.30;;;25.80;32.20;;;;;;5052634;28;20229;-76
2021/09/06 11:24:27;;;;;;;7.80;6.93;;;25.20;31.50;;;;;;5051563;28;20209;-80
2021/09/06 11:26:54;;;;;;;8.85;7.95;;;25.00;31.00;;;;;;5049212;28;20688;-77
2021/09/06 11:29:21;;;;;;;9.88;8.82;;;24.90;34.10;;;;;;5051943;28;20309;-78
2021/09/06 11:31:48;;;;;;;8.35;7.50;;;24.90;35.60;;;;;;5051605;28;20229;-77
2021/09/06 11:34:16;;;;;;;8.15;7.28;;;24.80;36.10;;;;;;5050757;28;20565;-79
2021/09/06 11:36:44;;;;;;;10.07;9.07;;;24.80;34.70;;;;;;5049631;28;20232;-79
2021/09/06 11:39:12;;;;;;;9.65;8.25;;;24.80;36.10;;;;;;5050473;28;20197;-80
2021/09/06 11:41:39;;;;;;;11.38;10.18;;;24.70;35.00;;;;;;5049287;28;20222;-79
2021/09/06 11:44:07;;;;;;;8.52;7.63;;;24.80;36.10;;;;;;5049424;28;20206;-79
2021/09/06 11:46:35;;;;;;;9.70;8.70;;;24.50;35.60;;;;;;5050653;28;20369;-79
2021/09/06 11:49:02;;;;;;;10.68;9.05;;;24.60;35.90;;;;;;5044572;28;20232;-79
2021/09/06 11:51:29;;;;;;;10.05;8.73;;;24.90;37.30;;;;;;5045783;28;20242;-79
2021/09/06 11:53:57;;;;;;;9.98;8.70;;;24.90;36.20;;;;;;5049260;28;20661;-78
2021/09/06 11:56:25;;;;;;;10.65;8.25;;;24.80;36.10;;;;;;5051840;28;20248;-79
2021/09/06 11:58:55;;;;;;;13.63;10.73;;;24.50;35.90;;;;;;5051546;28;20305;-80
2021/09/06 12:01:24;;;;;;;9.18;8.25;;;24.40;35.80;;;;;;5044021;28;20329;-80
2021/09/06 12:03:52;;;;;;;10.05;9.05;;;24.40;35.80;;;;;;5050769;28;20543;-79
2021/09/06 12:06:21;;;;;;;8.95;7.97;;;24.40;35.80;;;;;;5042520;28;20221;-79
2021/09/06 12:08:52;;;;;;;10.98;8.32;;;24.60;36.00;;;;;;5048068;28;20267;-79
2021/09/06 12:11:18;;;;;;;9.38;8.40;;;24.40;35.80;;;;;;5046409;28;20222;-81
2021/09/06 12:13:56;;;;;;;11.27;9.38;;;24.50;35.40;;;;;;5047937;28;20289;-79
2021/09/06 12:16:28;;;;;;;10.48;8.48;;;24.40;34.10;;;;;;5047573;28;20221;-80
2021/09/06 12:18:55;;;;;;;10.68;8.10;;;23.90;36.20;;;;;;5051498;28;20635;-80
2021/09/06 12:21:24;;;;;;;10.45;6.90;;;23.80;35.20;;;;;;5047923;28;20234;-79
2021/09/06 12:23:57;;;;;;;10.77;6.45;;;23.70;33.10;;;;;;5049373;28;20226;-79
2021/09/06 12:26:24;;;;;;;7.75;6.95;;;23.70;33.60;;;;;;5049742;28;20377;-79
2021/09/06 12:28:56;;;;;;;10.05;7.63;;;23.80;35.20;;;;;;5051513;28;20221;-79
2021/09/06 12:31:23;;;;;;;7.82;6.78;;;23.90;33.60;;;;;;5050503;28;20286;-79
2021/09/06 12:33:52;;;;;;;8.73;7.25;;;24.10;28.70;;;;;;5050761;28;20227;-79
2021/09/06 12:36:19;;;;;;;11.50;7.57;;;23.90;30.00;;;;;;5051999;28;20220;-79
2021/09/06 12:38:46;;;;;;;7.72;6.72;;;24.10;30.70;;;;;;5052455;28;20775;-79
2021/09/06 12:41:13;;;;;;;8.63;6.95;;;24.20;32.70;;;;;;5050516;28;20297;-78
2021/09/06 12:43:41;;;;;;;8.57;6.63;;;24.30;32.50;;;;;;5049389;28;20237;-79